Time;durP1;ratioP1;P1;durP2;ratioP2;P2;SDS_P1;SDS_P2;PMS_P1;PMS_P2;Temp;Humidity;BMP_temperature;BMP_pressure;BME280_temperature;BME280_humidity;BME280_pressure;Samples;Min_cycle;Max_cycle;Signal;HPM_P1;HPM_P2
2022/05/19 00:01:04;;;;;;;6.38;4.80;;;21.50;67.30;;;;;;5094777;28;20052;-29
2022/05/19 00:03:30;;;;;;;8.32;5.07;;;21.50;67.40;;;;;;5094998;28;20487;-29
2022/05/19 00:05:58;;;;;;;6.85;5.15;;;21.40;67.40;;;;;;5094742;28;20012;-29
2022/05/19 00:08:23;;;;;;;7.90;5.35;;;21.40;67.50;;;;;;5094723;28;20028;-34
2022/05/19 00:10:49;;;;;;;8.15;5.18;;;21.40;67.60;;;;;;5095221;28;20036;-28
2022/05/19 00:13:15;;;;;;;7.10;5.47;;;21.40;67.70;;;;;;5094904;28;20107;-35
2022/05/19 00:15:40;;;;;;;8.55;5.70;;;21.40;67.70;;;;;;5094543;28;20584;-29
2022/05/19 00:18:06;;;;;;;9.50;5.05;;;21.40;67.70;;;;;;5094533;28;20032;-32
2022/05/19 00:20:31;;;;;;;9.05;5.32;;;21.40;67.80;;;;;;5094516;28;20027;-30
2022/05/19 00:22:57;;;;;;;6.80;5.30;;;21.40;67.90;;;;;;5094530;28;20067;-29
2022/05/19 00:25:22;;;;;;;7.75;5.40;;;21.40;67.90;;;;;;5094520;28;20020;-34
2022/05/19 00:27:48;;;;;;;7.43;5.22;;;21.40;67.90;;;;;;5094598;28;20020;-28
2022/05/19 00:30:14;;;;;;;8.25;5.45;;;21.40;68.00;;;;;;5094469;28;20313;-29
2022/05/19 00:32:39;;;;;;;6.45;5.30;;;21.40;68.00;;;;;;5094385;28;20024;-29
2022/05/19 00:35:05;;;;;;;9.05;5.18;;;21.30;68.10;;;;;;5092901;28;20020;-31
2022/05/19 00:37:31;;;;;;;6.40;4.80;;;21.30;68.10;;;;;;5094229;28;20035;-29
2022/05/19 00:39:57;;;;;;;8.07;5.57;;;21.30;68.20;;;;;;5094275;28;20091;-29
2022/05/19 00:45:07;;;;;;;9.43;6.18;;;21.30;68.30;;;;;;5094680;28;20035;-28
2022/05/19 00:47:39;;;;;;;8.63;6.30;;;21.30;68.50;;;;;;5094383;28;20099;-28
2022/05/19 00:50:09;;;;;;;8.05;6.22;;;21.30;68.60;;;;;;5093867;28;20032;-30
2022/05/19 00:52:40;;;;;;;8.75;6.20;;;21.30;68.60;;;;;;5094253;28;20020;-29
2022/05/19 00:55:08;;;;;;;7.88;6.22;;;21.30;68.70;;;;;;5094249;28;20026;-29
2022/05/19 00:57:38;;;;;;;8.27;6.85;;;21.30;68.80;;;;;;5094046;28;20090;-28
2022/05/19 01:00:09;;;;;;;9.98;7.65;;;21.30;68.90;;;;;;5094139;28;20028;-29
2022/05/19 01:02:41;;;;;;;11.60;7.95;;;21.30;69.00;;;;;;5094002;28;20024;-30
2022/05/19 01:05:14;;;;;;;13.30;7.78;;;21.20;69.10;;;;;;5093898;28;20431;-36
2022/05/19 01:07:54;;;;;;;10.02;7.15;;;21.20;69.30;;;;;;5093446;28;20531;-32
2022/05/19 01:10:20;;;;;;;9.88;7.45;;;21.20;69.30;;;;;;5093330;28;20035;-29
2022/05/19 01:12:48;;;;;;;10.60;7.53;;;21.20;69.40;;;;;;5093437;28;20024;-28
2022/05/19 01:15:15;;;;;;;10.50;7.03;;;21.10;69.50;;;;;;5093398;28;20024;-28
2022/05/19 01:17:41;;;;;;;11.98;8.25;;;21.10;69.50;;;;;;5093366;28;20106;-29
2022/05/19 01:20:25;;;;;;;11.65;7.47;;;21.10;69.70;;;;;;5093448;28;20060;-41
2022/05/19 01:23:09;;;;;;;9.68;7.78;;;21.10;69.80;;;;;;5093150;28;20097;-34
2022/05/19 01:25:34;;;;;;;11.80;7.50;;;21.10;69.90;;;;;;5093249;28;20073;-29
2022/05/19 01:28:00;;;;;;;10.68;7.10;;;21.10;69.90;;;;;;5092278;28;20020;-30
2022/05/19 01:30:26;;;;;;;10.23;8.05;;;21.00;69.90;;;;;;5093194;28;20020;-35
2022/05/19 01:32:54;;;;;;;11.32;8.57;;;21.00;70.00;;;;;;5093163;28;20514;-29
2022/05/19 01:35:21;;;;;;;13.23;8.82;;;21.00;70.20;;;;;;5093180;28;20042;-28
2022/05/19 01:37:47;;;;;;;11.50;8.73;;;21.00;70.20;;;;;;5093392;28;20485;-30
2022/05/19 01:40:18;;;;;;;10.90;8.77;;;21.00;70.40;;;;;;5093211;28;20016;-28
2022/05/19 01:42:52;;;;;;;11.80;8.60;;;21.00;70.50;;;;;;5091651;28;20031;-28
2022/05/19 01:45:45;;;;;;;12.13;8.85;;;21.00;70.60;;;;;;5092993;28;20103;-29
2022/05/19 01:48:21;;;;;;;11.68;9.30;;;21.00;70.60;;;;;;5093409;28;20584;-29
2022/05/19 01:51:01;;;;;;;11.45;8.85;;;21.00;70.60;;;;;;5092899;28;20024;-29
2022/05/19 01:54:00;;;;;;;12.63;9.15;;;20.90;71.30;;;;;;5092805;28;20055;-29
2022/05/19 01:56:54;;;;;;;12.95;9.00;;;20.90;70.80;;;;;;5074714;28;20043;-35
2022/05/19 01:59:34;;;;;;;;;;;20.90;70.90;;;;;;5085069;28;20048;-33
2022/05/19 02:02:12;;;;;;;10.82;7.97;;;20.80;70.60;;;;;;5092426;28;20010;-32
2022/05/19 02:04:52;;;;;;;10.18;8.13;;;20.80;70.70;;;;;;5092713;28;20052;-34
2022/05/19 02:07:19;;;;;;;10.88;7.80;;;20.80;70.90;;;;;;5092836;28;20053;-29
2022/05/19 02:09:51;;;;;;;11.15;8.98;;;20.80;71.00;;;;;;5092703;28;20051;-29
2022/05/19 02:12:17;;;;;;;10.27;8.60;;;20.70;71.10;;;;;;5093026;28;20472;-29
2022/05/19 02:14:53;;;;;;;14.32;9.95;;;20.70;71.20;;;;;;5092605;28;20024;-28
2022/05/19 02:17:24;;;;;;;13.18;8.85;;;20.70;72.10;;;;;;5092600;28;20395;-28
2022/05/19 02:19:54;;;;;;;10.90;9.20;;;20.70;71.50;;;;;;5092307;28;20031;-29
2022/05/19 02:22:23;;;;;;;10.68;8.68;;;20.70;71.60;;;;;;5092353;28;20027;-32
2022/05/19 02:25:04;;;;;;;10.32;8.63;;;20.70;71.60;;;;;;5092564;28;20024;-32
2022/05/19 02:27:35;;;;;;;11.10;8.85;;;20.70;71.60;;;;;;5092298;28;20024;-31
2022/05/19 02:30:05;;;;;;;12.43;9.73;;;20.70;71.70;;;;;;5092679;28;20032;-29
2022/05/19 02:32:30;;;;;;;10.23;8.07;;;20.70;71.70;;;;;;5092369;28;20024;-30
2022/05/19 02:34:56;;;;;;;10.27;8.98;;;20.70;72.30;;;;;;5092303;28;20081;-28
2022/05/19 02:37:22;;;;;;;14.60;9.75;;;20.70;71.80;;;;;;5092335;28;20080;-29
2022/05/19 02:39:48;;;;;;;10.63;9.48;;;20.70;71.80;;;;;;5092219;28;20028;-29
2022/05/19 02:42:14;;;;;;;11.52;9.63;;;20.70;71.80;;;;;;5092212;28;20020;-31
2022/05/19 02:44:40;;;;;;;10.95;9.13;;;20.70;71.90;;;;;;5092332;28;20024;-31
2022/05/19 02:47:06;;;;;;;11.80;9.20;;;20.70;72.00;;;;;;5092857;28;20016;-28
2022/05/19 02:49:32;;;;;;;14.55;9.73;;;20.70;72.00;;;;;;5092388;28;20479;-28
2022/05/19 02:51:57;;;;;;;13.02;9.65;;;20.60;72.00;;;;;;5092577;28;20102;-29
2022/05/19 02:54:23;;;;;;;10.95;8.93;;;20.60;72.10;;;;;;5090931;28;20050;-28
2022/05/19 02:56:49;;;;;;;13.63;9.93;;;20.60;72.10;;;;;;5092187;28;20089;-32
2022/05/19 02:59:15;;;;;;;11.57;9.55;;;20.60;72.10;;;;;;5091814;28;20047;-31
2022/05/19 03:01:41;;;;;;;11.18;9.38;;;20.60;72.10;;;;;;5091919;28;20020;-27
2022/05/19 03:04:07;;;;;;;12.15;9.23;;;20.60;72.20;;;;;;5092347;28;20013;-30
2022/05/19 03:06:33;;;;;;;12.57;9.95;;;20.60;72.30;;;;;;5092236;28;20035;-35
2022/05/19 03:08:58;;;;;;;10.20;8.77;;;20.60;72.30;;;;;;5092321;28;20024;-29
2022/05/19 03:11:24;;;;;;;10.48;9.43;;;20.60;72.40;;;;;;5092292;28;20123;-34
2022/05/19 03:13:50;;;;;;;11.63;9.88;;;20.60;72.40;;;;;;5094335;28;20034;-31
2022/05/19 03:16:15;;;;;;;11.25;9.10;;;20.60;72.40;;;;;;5096084;28;20392;-27
2022/05/19 03:18:41;;;;;;;12.20;9.98;;;20.60;72.30;;;;;;5095738;28;20028;-28
2022/05/19 03:21:07;;;;;;;11.43;9.70;;;20.60;72.30;;;;;;5095992;28;20524;-29
2022/05/19 03:23:33;;;;;;;13.18;9.80;;;20.70;72.30;;;;;;5095890;28;20054;-27
2022/05/19 03:25:58;;;;;;;12.55;10.48;;;20.70;72.30;;;;;;5096509;28;20372;-27
2022/05/19 03:28:24;;;;;;;12.57;9.40;;;20.70;72.20;;;;;;5096171;28;20024;-28
2022/05/19 03:30:50;;;;;;;10.05;9.02;;;20.70;72.20;;;;;;5096004;28;20041;-33
2022/05/19 03:33:15;;;;;;;14.65;9.63;;;20.80;72.10;;;;;;5096064;28;20108;-27
2022/05/19 03:35:43;;;;;;;12.10;8.93;;;20.80;72.00;;;;;;5095555;28;20468;-27
2022/05/19 03:38:10;;;;;;;14.80;10.57;;;20.80;72.00;;;;;;5095677;28;20388;-29
2022/05/19 03:40:35;;;;;;;12.10;9.95;;;20.80;72.10;;;;;;5095462;28;20027;-28
2022/05/19 03:43:01;;;;;;;11.15;9.55;;;20.80;72.00;;;;;;5095723;28;20384;-29
2022/05/19 03:45:27;;;;;;;9.05;8.15;;;20.80;71.90;;;;;;5095436;28;20481;-31
2022/05/19 03:47:53;;;;;;;9.95;8.20;;;20.80;71.80;;;;;;5095706;28;20066;-31
2022/05/19 03:50:18;;;;;;;11.50;8.32;;;20.90;71.60;;;;;;5093984;28;20040;-31
2022/05/19 03:52:44;;;;;;;11.35;8.70;;;20.90;71.40;;;;;;5095468;28;20027;-34
2022/05/19 03:55:14;;;;;;;9.82;8.20;;;20.90;71.40;;;;;;5095745;28;20035;-28
2022/05/19 03:57:40;;;;;;;9.82;7.97;;;21.00;71.30;;;;;;5095143;28;20098;-28
2022/05/19 04:00:08;;;;;;;8.65;7.53;;;21.00;71.20;;;;;;5094721;28;20099;-28
2022/05/19 04:02:34;;;;;;;10.07;8.55;;;21.00;71.20;;;;;;5095180;28;20384;-29
2022/05/19 04:05:00;;;;;;;9.23;7.97;;;21.00;71.00;;;;;;5095259;28;20024;-28
2022/05/19 04:07:25;;;;;;;11.35;8.65;;;21.10;71.00;;;;;;5094887;28;20027;-28
2022/05/19 04:09:51;;;;;;;10.07;6.88;;;21.10;70.90;;;;;;5094774;28;20520;-30
2022/05/19 04:12:20;;;;;;;8.68;7.78;;;21.20;70.90;;;;;;5095017;28;20158;-33
2022/05/19 04:14:46;;;;;;;9.95;7.38;;;21.20;70.80;;;;;;5094888;28;20483;-30
2022/05/19 04:17:12;;;;;;;9.40;6.43;;;21.20;70.70;;;;;;5094609;28;20032;-29
2022/05/19 04:19:37;;;;;;;9.27;6.47;;;21.20;70.60;;;;;;5094352;28;20028;-29
2022/05/19 04:22:03;;;;;;;7.68;5.80;;;21.20;70.40;;;;;;5094412;28;20018;-30
2022/05/19 04:24:29;;;;;;;6.60;5.65;;;21.20;70.30;;;;;;5093645;28;20028;-29
2022/05/19 04:26:54;;;;;;;7.13;5.45;;;21.20;70.20;;;;;;5094370;28;20020;-35
2022/05/19 04:29:20;;;;;;;5.80;4.53;;;21.30;70.20;;;;;;5094371;28;20060;-31
2022/05/19 04:31:45;;;;;;;8.05;4.65;;;21.30;70.00;;;;;;5094239;28;20464;-31
2022/05/19 04:34:11;;;;;;;7.20;4.50;;;21.30;69.70;;;;;;5094235;28;20024;-29
2022/05/19 04:36:36;;;;;;;4.10;3.47;;;21.30;69.60;;;;;;5094246;28;20503;-30
2022/05/19 04:39:03;;;;;;;4.38;3.50;;;21.30;69.40;;;;;;5094248;28;20486;-33
2022/05/19 04:41:28;;;;;;;5.72;3.30;;;21.30;69.30;;;;;;5093975;28;20028;-29
2022/05/19 04:43:54;;;;;;;4.38;2.95;;;21.40;69.20;;;;;;5094333;28;20084;-35
2022/05/19 04:46:19;;;;;;;3.42;3.10;;;21.40;69.00;;;;;;5094075;28;20020;-29
2022/05/19 04:48:45;;;;;;;3.10;2.40;;;21.40;68.90;;;;;;5094341;28;20020;-30
2022/05/19 04:51:10;;;;;;;2.75;2.30;;;21.40;68.70;;;;;;5094392;28;20020;-33
2022/05/19 04:53:36;;;;;;;4.53;2.80;;;21.40;68.50;;;;;;5094075;28;20017;-30
2022/05/19 04:56:02;;;;;;;3.15;2.13;;;21.40;68.40;;;;;;5094089;28;20058;-30
2022/05/19 04:58:28;;;;;;;3.53;2.00;;;21.40;68.30;;;;;;5093669;28;20047;-31
2022/05/19 05:00:53;;;;;;;3.05;2.00;;;21.40;68.20;;;;;;5093515;28;20024;-29
2022/05/19 05:03:19;;;;;;;2.85;2.13;;;21.50;68.10;;;;;;5093606;28;20058;-30
2022/05/19 05:05:45;;;;;;;2.75;2.28;;;21.50;68.00;;;;;;5093620;28;20052;-29
2022/05/19 05:08:11;;;;;;;2.30;1.90;;;21.50;67.90;;;;;;5093481;28;20025;-33
2022/05/19 05:10:37;;;;;;;2.25;1.80;;;21.50;67.80;;;;;;5093447;28;20383;-29
2022/05/19 05:13:08;;;;;;;3.00;1.70;;;21.50;67.70;;;;;;5093645;28;20021;-30
2022/05/19 05:15:34;;;;;;;1.90;1.50;;;21.50;67.60;;;;;;5093408;28;20211;-35
2022/05/19 05:18:00;;;;;;;1.95;1.77;;;21.60;67.50;;;;;;5093588;28;20391;-32
2022/05/19 05:20:25;;;;;;;1.85;1.70;;;21.60;67.30;;;;;;5093706;28;20016;-29
2022/05/19 05:22:51;;;;;;;2.85;1.50;;;21.70;67.10;;;;;;5093670;28;20460;-30
2022/05/19 05:25:17;;;;;;;3.63;1.95;;;21.70;67.00;;;;;;5093217;28;20020;-29
2022/05/19 05:27:43;;;;;;;1.83;1.73;;;21.70;66.80;;;;;;5093392;28;20209;-32
2022/05/19 05:30:10;;;;;;;1.88;1.63;;;21.80;66.50;;;;;;5093227;28;20110;-29
2022/05/19 05:32:36;;;;;;;3.10;1.63;;;21.80;66.30;;;;;;5091605;28;20032;-29
2022/05/19 05:35:03;;;;;;;1.88;1.40;;;21.80;66.20;;;;;;5093432;28;20391;-31
2022/05/19 05:37:28;;;;;;;2.13;1.33;;;21.90;66.10;;;;;;5092905;28;20051;-36
2022/05/19 05:39:54;;;;;;;1.33;1.23;;;21.90;66.00;;;;;;5093288;28;20432;-30
2022/05/19 05:42:19;;;;;;;1.45;1.35;;;21.90;65.80;;;;;;5093125;28;20437;-33
2022/05/19 05:44:45;;;;;;;2.00;1.35;;;21.80;65.60;;;;;;5092824;28;20024;-35
2022/05/19 05:47:10;;;;;;;1.92;1.60;;;21.80;65.60;;;;;;5093083;28;20024;-32
2022/05/19 05:49:36;;;;;;;3.40;1.42;;;21.80;65.50;;;;;;5093220;28;20024;-37
2022/05/19 05:52:04;;;;;;;1.40;1.30;;;21.70;65.50;;;;;;5092900;28;20081;-30
2022/05/19 05:54:29;;;;;;;1.85;1.20;;;21.70;65.50;;;;;;5092639;28;20024;-32
2022/05/19 05:56:55;;;;;;;1.60;1.50;;;21.70;65.50;;;;;;5092991;28;20160;-29
2022/05/19 05:59:20;;;;;;;1.40;1.30;;;21.80;65.40;;;;;;5092411;28;20063;-29
2022/05/19 06:01:46;;;;;;;1.85;1.40;;;21.80;65.40;;;;;;5092953;28;20020;-31
2022/05/19 06:04:12;;;;;;;1.25;1.15;;;21.90;65.40;;;;;;5092994;28;20038;-29
2022/05/19 06:06:37;;;;;;;1.85;1.50;;;21.90;65.20;;;;;;5092681;28;20095;-30
2022/05/19 06:09:03;;;;;;;1.50;1.30;;;22.00;65.10;;;;;;5092444;28;20383;-30
2022/05/19 06:11:29;;;;;;;1.30;1.20;;;22.00;65.00;;;;;;5092755;28;20028;-28
2022/05/19 06:13:55;;;;;;;2.17;1.23;;;22.10;64.90;;;;;;5092609;28;20028;-30
2022/05/19 06:16:20;;;;;;;1.38;1.27;;;22.10;64.70;;;;;;5092878;28;20028;-31
2022/05/19 06:18:46;;;;;;;2.35;1.40;;;22.10;64.70;;;;;;5092930;28;20020;-29
2022/05/19 06:21:12;;;;;;;1.48;1.38;;;22.10;64.80;;;;;;5092650;28;20020;-30
2022/05/19 06:23:38;;;;;;;1.30;1.20;;;22.10;65.00;;;;;;5092435;28;20077;-34
2022/05/19 06:26:04;;;;;;;2.00;1.35;;;22.10;64.90;;;;;;5092475;28;20091;-31
2022/05/19 06:28:30;;;;;;;1.42;1.33;;;22.00;65.00;;;;;;5092383;28;20028;-34
2022/05/19 06:30:55;;;;;;;1.55;1.45;;;22.10;65.20;;;;;;5092478;28;20023;-29
2022/05/19 06:33:22;;;;;;;1.58;1.30;;;22.20;65.30;;;;;;5092113;28;20024;-30
2022/05/19 06:35:48;;;;;;;1.20;1.10;;;22.20;65.20;;;;;;5092487;28;20020;-31
2022/05/19 06:38:15;;;;;;;2.13;1.42;;;22.30;65.00;;;;;;5090543;28;20052;-36
2022/05/19 06:40:41;;;;;;;1.80;1.38;;;22.40;64.90;;;;;;5092099;28;20031;-28
2022/05/19 06:43:13;;;;;;;1.42;1.30;;;22.50;64.60;;;;;;5092192;28;20052;-30
2022/05/19 06:45:39;;;;;;;2.37;1.30;;;22.60;64.50;;;;;;5092614;28;20099;-29
2022/05/19 06:48:05;;;;;;;1.38;1.27;;;22.60;64.30;;;;;;5093146;28;20300;-32
2022/05/19 06:50:31;;;;;;;1.38;1.27;;;22.70;64.30;;;;;;5096722;28;20016;-30
2022/05/19 06:53:03;;;;;;;1.70;1.20;;;22.80;64.20;;;;;;5095178;28;20467;-31
2022/05/19 06:55:34;;;;;;;2.55;1.58;;;22.80;64.10;;;;;;5096628;28;20063;-33
2022/05/19 06:58:00;;;;;;;1.30;1.13;;;22.80;64.00;;;;;;5096607;28;20067;-30
2022/05/19 07:00:28;;;;;;;2.65;1.60;;;22.80;64.00;;;;;;5096744;28;20099;-30
2022/05/19 07:02:56;;;;;;;3.42;1.60;;;22.80;63.90;;;;;;5096318;28;20095;-29
2022/05/19 07:05:29;;;;;;;3.47;1.55;;;22.80;63.90;;;;;;5096103;28;20020;-30
2022/05/19 07:07:54;;;;;;;1.60;1.50;;;22.80;63.90;;;;;;5096388;28;20091;-29
2022/05/19 07:10:21;;;;;;;1.95;1.40;;;22.90;63.90;;;;;;5095799;28;20051;-32
2022/05/19 07:12:48;;;;;;;2.15;1.35;;;22.90;63.80;;;;;;5095694;28;20020;-34
2022/05/19 07:15:15;;;;;;;2.03;1.67;;;23.00;63.70;;;;;;5096067;28;20024;-29
2022/05/19 07:17:41;;;;;;;5.40;1.58;;;23.00;63.60;;;;;;5096034;28;20468;-30
2022/05/19 07:22:53;;;;;;;3.90;1.50;;;23.20;63.50;;;;;;5095713;28;20445;-30
2022/05/19 07:25:19;;;;;;;1.65;1.38;;;23.30;63.40;;;;;;5095868;28;20158;-32
2022/05/19 07:27:44;;;;;;;3.47;1.70;;;23.40;63.30;;;;;;5095633;28;20456;-29
2022/05/19 07:30:11;;;;;;;2.03;1.52;;;23.40;63.10;;;;;;5095917;28;20052;-30
2022/05/19 07:32:37;;;;;;;3.13;1.50;;;23.50;63.10;;;;;;5095824;28;20050;-30
2022/05/19 07:35:04;;;;;;;6.35;1.80;;;23.50;62.90;;;;;;5095744;28;20531;-34
2022/05/19 07:37:31;;;;;;;3.55;1.85;;;23.60;62.80;;;;;;5095795;28;20067;-31
2022/05/19 07:39:56;;;;;;;11.82;2.22;;;23.50;62.80;;;;;;5096048;28;20409;-27
2022/05/19 07:42:23;;;;;;;7.75;2.00;;;23.60;62.70;;;;;;5095580;28;20055;-28
2022/05/19 07:44:49;;;;;;;3.38;1.80;;;23.60;62.50;;;;;;5095747;28;20528;-31
2022/05/19 07:47:15;;;;;;;3.67;2.10;;;23.70;62.60;;;;;;5094312;28;20470;-28
2022/05/19 07:49:41;;;;;;;3.03;1.65;;;23.70;62.50;;;;;;5095722;28;20027;-28
2022/05/19 07:52:08;;;;;;;4.95;1.50;;;23.80;62.40;;;;;;5095604;28;20028;-29
2022/05/19 07:54:34;;;;;;;3.95;1.63;;;23.90;62.20;;;;;;5095332;28;20052;-35
2022/05/19 07:57:00;;;;;;;2.15;1.55;;;24.00;62.00;;;;;;5095529;28;20108;-32
2022/05/19 07:59:26;;;;;;;1.95;1.52;;;24.10;61.80;;;;;;5093801;28;20028;-28
2022/05/19 08:01:53;;;;;;;2.58;1.50;;;24.10;61.50;;;;;;5095385;28;20020;-29
2022/05/19 08:04:21;;;;;;;1.98;1.60;;;24.20;61.40;;;;;;5095239;28;20020;-36
2022/05/19 08:06:47;;;;;;;1.85;1.70;;;24.20;61.00;;;;;;5095025;28;20020;-32
2022/05/19 08:11:57;;;;;;;2.17;1.73;;;24.20;61.20;;;;;;5094886;28;20039;-29
2022/05/19 08:17:10;;;;;;;3.45;1.70;;;24.30;61.30;;;;;;5095256;28;20034;-29
2022/05/19 08:19:36;;;;;;;1.60;1.50;;;24.50;61.20;;;;;;5094663;28;20478;-31
2022/05/19 08:22:02;;;;;;;3.20;1.90;;;24.60;61.10;;;;;;5094216;28;20069;-31
2022/05/19 08:24:30;;;;;;;2.05;1.55;;;24.70;61.00;;;;;;5094333;28;20020;-32
2022/05/19 08:26:56;;;;;;;3.67;1.50;;;24.80;60.70;;;;;;5094281;28;20025;-30
2022/05/19 08:29:21;;;;;;;2.58;1.50;;;24.90;60.50;;;;;;5094413;28;20559;-29
2022/05/19 08:31:47;;;;;;;2.05;1.65;;;25.00;60.10;;;;;;5094275;28;20032;-29
2022/05/19 08:34:14;;;;;;;1.98;1.60;;;25.10;60.00;;;;;;5094212;28;20028;-29
2022/05/19 08:36:43;;;;;;;3.63;1.77;;;25.20;59.80;;;;;;5094458;28;20032;-29
2022/05/19 08:39:10;;;;;;;2.03;1.52;;;25.30;59.50;;;;;;5094252;28;20081;-30
2022/05/19 08:41:41;;;;;;;2.10;1.70;;;25.40;59.20;;;;;;5094461;28;20029;-33
2022/05/19 08:44:14;;;;;;;2.83;1.70;;;25.50;58.90;;;;;;5094434;28;20082;-32
2022/05/19 08:46:45;;;;;;;2.75;2.08;;;25.50;58.50;;;;;;5092958;28;20043;-29
2022/05/19 08:49:44;;;;;;;2.67;1.40;;;25.50;58.40;;;;;;5094398;28;20081;-30
2022/05/19 08:52:19;;;;;;;2.10;1.77;;;25.50;58.30;;;;;;5093860;28;20016;-38
2022/05/19 08:54:48;;;;;;;2.38;1.98;;;25.50;58.90;;;;;;5093973;28;20048;-35
2022/05/19 08:57:41;;;;;;;1.75;1.63;;;25.50;58.30;;;;;;5093464;28;20493;-36
2022/05/19 09:00:19;;;;;;;2.65;1.90;;;25.70;58.40;;;;;;5093842;28;20058;-28
2022/05/19 09:02:54;;;;;;;2.10;1.90;;;25.70;58.20;;;;;;5093729;28;20016;-29
2022/05/19 09:05:28;;;;;;;2.30;1.85;;;25.80;58.20;;;;;;5093734;28;20028;-32
2022/05/19 09:08:20;;;;;;;2.05;1.85;;;25.90;57.90;;;;;;5093629;28;20020;-29
2022/05/19 09:11:07;;;;;;;2.10;1.90;;;25.90;57.80;;;;;;5092234;28;20028;-30
2022/05/19 09:14:23;;;;;;;2.53;2.00;;;26.00;57.80;;;;;;5093481;28;20063;-29
2022/05/19 09:16:51;;;;;;;3.72;2.15;;;26.10;57.60;;;;;;5075809;28;20096;-29
2022/05/19 09:19:31;;;;;;;5.15;1.92;;;26.10;57.40;;;;;;5093494;28;20024;-32
2022/05/19 09:22:19;;;;;;;3.08;2.20;;;26.20;57.30;;;;;;5093560;28;20020;-30
2022/05/19 09:24:48;;;;;;;2.20;2.00;;;26.20;57.30;;;;;;5093360;28;20388;-29
2022/05/19 09:27:14;;;;;;;3.10;1.80;;;26.30;57.30;;;;;;5093393;28;20016;-31
2022/05/19 09:29:42;;;;;;;4.80;2.00;;;26.40;57.20;;;;;;5093298;28;20095;-29
2022/05/19 09:32:15;;;;;;;4.05;2.20;;;26.40;57.10;;;;;;5093400;28;20111;-30
2022/05/19 09:34:47;;;;;;;4.40;2.20;;;26.60;57.00;;;;;;5093296;28;20051;-32
2022/05/19 09:37:37;;;;;;;2.30;2.10;;;26.70;56.70;;;;;;5093231;28;20044;-33
2022/05/19 09:40:11;;;;;;;2.00;1.85;;;26.80;56.60;;;;;;5091870;28;20044;-30
2022/05/19 09:42:54;;;;;;;2.72;2.20;;;26.90;56.50;;;;;;5093343;28;20463;-30
2022/05/19 09:45:25;;;;;;;2.40;2.10;;;27.00;56.20;;;;;;5091779;28;20024;-29
2022/05/19 09:47:57;;;;;;;3.78;2.60;;;27.20;56.00;;;;;;5093132;28;20039;-31
2022/05/19 09:50:26;;;;;;;3.05;2.05;;;27.20;55.70;;;;;;5093191;28;20035;-30
2022/05/19 09:53:03;;;;;;;2.45;2.00;;;27.30;55.80;;;;;;5092733;28;20506;-31
2022/05/19 09:55:29;;;;;;;3.97;2.60;;;27.30;55.60;;;;;;5092739;28;20475;-30
2022/05/19 09:57:58;;;;;;;2.22;2.03;;;27.30;55.40;;;;;;5092825;28;20044;-29
2022/05/19 10:00:36;;;;;;;3.00;2.70;;;27.30;55.30;;;;;;5092649;28;20070;-31
2022/05/19 10:03:04;;;;;;;2.58;2.10;;;27.40;55.20;;;;;;5092999;28;20080;-30
2022/05/19 10:05:32;;;;;;;2.55;1.90;;;27.40;55.20;;;;;;5092808;28;20068;-30
2022/05/19 10:08:05;;;;;;;2.45;1.73;;;27.40;55.10;;;;;;5092795;28;20426;-34
2022/05/19 10:10:35;;;;;;;2.50;2.10;;;27.40;55.10;;;;;;5092653;28;20028;-30
2022/05/19 10:13:10;;;;;;;2.05;1.80;;;27.30;55.00;;;;;;5092571;28;20024;-35
2022/05/19 10:15:58;;;;;;;2.58;1.95;;;27.20;54.80;;;;;;5092362;28;20024;-33
2022/05/19 10:18:30;;;;;;;1.60;1.50;;;27.10;54.90;;;;;;5092617;28;20017;-30
2022/05/19 10:21:14;;;;;;;2.38;2.17;;;27.00;55.00;;;;;;5092781;28;20057;-31
2022/05/19 10:23:58;;;;;;;1.92;1.70;;;27.00;55.10;;;;;;5091768;28;20558;-30
2022/05/19 10:26:37;;;;;;;1.73;1.63;;;27.00;55.10;;;;;;5092906;28;20125;-29
2022/05/19 10:32:30;;;;;;;2.80;1.83;;;27.00;54.90;;;;;;5092678;28;20112;-30
2022/05/19 10:34:59;;;;;;;2.90;1.98;;;27.00;54.70;;;;;;5092107;28;20532;-31
2022/05/19 10:38:02;;;;;;;2.20;1.63;;;27.00;54.60;;;;;;5091962;28;20178;-31
2022/05/19 10:40:39;;;;;;;2.17;1.80;;;27.10;54.70;;;;;;5092138;28;20476;-34
2022/05/19 10:44:09;;;;;;;1.75;1.63;;;27.10;54.60;;;;;;5092142;28;20027;-37
2022/05/19 10:46:52;;;;;;;3.20;1.65;;;27.20;54.40;;;;;;4987585;28;20073;-29
2022/05/19 10:49:37;;;;;;;2.65;1.73;;;27.40;54.30;;;;;;5009982;28;20030;-30
2022/05/19 10:52:09;;;;;;;1.98;1.70;;;27.50;54.00;;;;;;5083565;28;20493;-31
2022/05/19 10:54:56;;;;;;;1.60;1.50;;;27.70;53.70;;;;;;5091917;28;20020;-30
2022/05/19 10:58:13;;;;;;;2.50;1.95;;;27.80;53.50;;;;;;5091835;28;20569;-29
2022/05/19 11:00:52;;;;;;;2.90;1.70;;;28.00;53.10;;;;;;5092046;28;20278;-31
2022/05/19 11:03:29;;;;;;;1.95;1.75;;;27.90;53.10;;;;;;5092040;28;20071;-30
2022/05/19 11:06:36;;;;;;;2.25;1.75;;;28.00;53.10;;;;;;5090859;28;20028;-29
2022/05/19 11:09:10;;;;;;;3.35;2.10;;;28.00;53.10;;;;;;5091847;28;20035;-30
2022/05/19 11:11:42;;;;;;;2.55;1.88;;;28.00;53.50;;;;;;5091677;28;20028;-33
2022/05/19 11:14:21;;;;;;;2.08;1.85;;;28.10;52.70;;;;;;5091806;28;20510;-37
2022/05/19 11:16:58;;;;;;;2.50;2.00;;;28.20;52.50;;;;;;5091938;28;20038;-37
2022/05/19 11:19:31;;;;;;;2.10;1.70;;;28.20;52.40;;;;;;5091889;28;20024;-30
2022/05/19 11:22:19;;;;;;;2.15;1.90;;;28.30;52.40;;;;;;5092310;28;20032;-31
2022/05/19 11:27:52;;;;;;;2.75;1.98;;;28.50;52.00;;;;;;5091737;28;20514;-29
2022/05/19 11:30:28;;;;;;;1.95;1.52;;;28.50;51.90;;;;;;5091746;28;20038;-30
2022/05/19 11:32:59;;;;;;;2.95;2.20;;;28.40;52.10;;;;;;5091793;28;20126;-29
2022/05/19 11:35:42;;;;;;;2.50;2.30;;;28.20;52.10;;;;;;5095223;28;20028;-32
2022/05/19 11:38:28;;;;;;;2.20;2.00;;;28.00;52.20;;;;;;5095862;28;20066;-30
2022/05/19 11:41:09;;;;;;;2.35;1.77;;;27.90;52.20;;;;;;5095555;28;20032;-29
2022/05/19 11:44:10;;;;;;;3.13;1.92;;;27.90;52.40;;;;;;5095887;28;20058;-31
2022/05/19 11:46:54;;;;;;;2.15;1.95;;;27.80;52.60;;;;;;5095807;28;20450;-31
2022/05/19 11:55:45;;;;;;;3.13;1.90;;;27.20;53.20;;;;;;5013487;28;20444;-33
2022/05/19 11:58:20;;;;;;;3.10;2.20;;;27.00;53.70;;;;;;5093474;28;20541;-30
2022/05/19 12:01:00;;;;;;;2.67;1.90;;;26.90;54.40;;;;;;5094103;28;20360;-30
2022/05/19 12:04:04;;;;;;;4.88;2.75;;;26.70;55.00;;;;;;5095335;28;20020;-32
2022/05/19 12:06:34;;;;;;;2.38;1.88;;;26.50;55.50;;;;;;5076942;28;20040;-35
2022/05/19 12:09:32;;;;;;;2.20;2.00;;;26.30;56.20;;;;;;5094601;28;20074;-39
2022/05/19 12:12:05;;;;;;;2.78;2.05;;;26.20;57.20;;;;;;5094306;28;20059;-29
2022/05/19 12:14:38;;;;;;;3.80;2.20;;;26.00;57.90;;;;;;5094659;28;20103;-30
2022/05/19 12:17:13;;;;;;;4.68;2.47;;;25.90;58.70;;;;;;5094715;28;20103;-36
2022/05/19 12:19:54;;;;;;;4.15;2.55;;;25.70;59.60;;;;;;5094439;28;20028;-29
2022/05/19 12:22:43;;;;;;;11.00;3.17;;;25.60;61.00;;;;;;5094515;28;20047;-31
2022/05/19 12:25:25;;;;;;;12.57;2.38;;;25.20;62.40;;;;;;5094670;28;20034;-28
2022/05/19 12:27:57;;;;;;;10.02;1.95;;;24.30;66.20;;;;;;5094469;28;20035;-29
2022/05/19 12:33:31;;;;;;;4.70;1.02;;;21.80;72.90;;;;;;5094412;28;20059;-37
2022/05/19 12:36:12;;;;;;;5.72;1.23;;;20.40;75.80;;;;;;5094355;28;20028;-30
2022/05/19 12:38:41;;;;;;;2.03;1.05;;;19.50;78.60;;;;;;5094242;28;20060;-30
2022/05/19 12:41:35;;;;;;;2.20;0.88;;;18.90;79.60;;;;;;5093114;28;20084;-30
2022/05/19 12:44:26;;;;;;;1.33;0.80;;;18.60;80.90;;;;;;5094566;28;20081;-33
2022/05/19 12:47:03;;;;;;;2.88;0.95;;;18.30;81.70;;;;;;5091972;28;20032;-32
2022/05/19 12:49:31;;;;;;;3.67;1.10;;;18.20;82.30;;;;;;5094120;28;20093;-33
2022/05/19 12:52:08;;;;;;;4.55;1.15;;;18.10;82.70;;;;;;5094161;28;20024;-32
2022/05/19 12:54:34;;;;;;;3.10;1.35;;;18.10;83.40;;;;;;5094034;28;20036;-33
2022/05/19 12:57:08;;;;;;;1.80;1.40;;;18.00;84.40;;;;;;5092592;28;20125;-32
2022/05/19 12:59:56;;;;;;;3.50;1.60;;;17.90;84.70;;;;;;5093951;28;20526;-33
2022/05/19 13:02:45;;;;;;;3.30;1.40;;;17.90;85.00;;;;;;5093955;28;20111;-33
2022/05/19 13:05:30;;;;;;;2.67;1.63;;;17.90;85.50;;;;;;5093887;28;20081;-32
2022/05/19 13:08:08;;;;;;;4.65;1.80;;;17.90;85.80;;;;;;5093963;28;20024;-35
2022/05/19 13:10:55;;;;;;;2.92;1.90;;;17.90;85.70;;;;;;5092464;28;20047;-34
2022/05/19 13:13:38;;;;;;;4.57;1.80;;;17.90;86.00;;;;;;5094306;28;20104;-33
2022/05/19 13:16:14;;;;;;;2.13;1.45;;;17.90;86.10;;;;;;5094120;28;20036;-36
2022/05/19 13:18:46;;;;;;;2.83;1.65;;;17.90;86.50;;;;;;5092335;28;20036;-39
2022/05/19 13:21:20;;;;;;;3.67;1.90;;;17.90;87.10;;;;;;5093629;28;20032;-36
2022/05/19 13:23:46;;;;;;;3.53;2.00;;;17.90;86.90;;;;;;5093923;28;20020;-34
2022/05/19 13:26:28;;;;;;;4.70;2.00;;;17.90;87.50;;;;;;5093515;28;20032;-33
2022/05/19 13:32:00;;;;;;;2.72;1.70;;;17.80;88.00;;;;;;5093460;28;20046;-33
2022/05/19 13:34:27;;;;;;;3.28;1.80;;;17.80;87.80;;;;;;5093452;28;20031;-32
2022/05/19 13:37:02;;;;;;;3.70;2.15;;;17.80;87.90;;;;;;5093463;28;20028;-33